Time;durP1;ratioP1;P1;durP2;ratioP2;P2;SDS_P1;SDS_P2;PMS_P1;PMS_P2;Temp;Humidity;BMP_temperature;BMP_pressure;BME280_temperature;BME280_humidity;BME280_pressure;Samples;Min_cycle;Max_cycle;Signal;HPM_P1;HPM_P2
2021/09/19 00:00:47;;;;;;;9.77;3.78;;;;;;;;;;5080452;28;20059;-83
2021/09/19 00:03:17;;;;;;;5.82;3.67;;;;;;;;;;5063211;28;20049;-84
2021/09/19 00:05:47;;;;;;;8.25;3.55;;;;;;;;;;5064640;28;20053;-83
2021/09/19 00:08:14;;;;;;;5.55;3.53;;;;;;;;;;5059216;28;20063;-84
2021/09/19 00:10:42;;;;;;;9.18;4.25;;;;;;;;;;5064764;28;20058;-83
2021/09/19 00:13:08;;;;;;;9.32;4.00;;;;;;;;;;5061384;28;20048;-83
2021/09/19 00:15:35;;;;;;;6.43;4.00;;;;;;;;;;5077139;28;20126;-84
2021/09/19 00:18:02;;;;;;;7.80;3.72;;;;;;;;;;5085928;28;20044;-84
2021/09/19 00:20:28;;;;;;;7.47;4.18;;;;;;;;;;5081468;28;20112;-84
2021/09/19 00:22:55;;;;;;;5.22;3.50;;;;;;;;;;5087823;28;20086;-83
2021/09/19 00:25:22;;;;;;;4.88;3.65;;;;;;;;;;5091675;28;20063;-83
2021/09/19 00:27:48;;;;;;;6.78;4.43;;;;;;;;;;5086739;28;20302;-83
2021/09/19 00:30:18;;;;;;;5.22;3.67;;;;;;;;;;5085247;28;20451;-83
2021/09/19 00:32:44;;;;;;;8.77;4.03;;;;;;;;;;5086717;28;20106;-83
2021/09/19 00:35:11;;;;;;;9.75;4.13;;;;;;;;;;5090746;28;20064;-84
2021/09/19 00:37:38;;;;;;;7.05;4.05;;;;;;;;;;5070433;28;20049;-84
2021/09/19 00:40:05;;;;;;;10.85;4.00;;;;;;;;;;5069185;28;20119;-83
2021/09/19 00:42:32;;;;;;;9.35;3.67;;;;;;;;;;5087918;28;20123;-84
2021/09/19 00:45:00;;;;;;;6.97;3.97;;;;;;;;;;5066870;28;20048;-83
2021/09/19 00:47:27;;;;;;;8.60;3.75;;;;;;;;;;5067868;28;20417;-84
2021/09/19 00:49:53;;;;;;;10.93;3.95;;;;;;;;;;5075616;28;20106;-84
2021/09/19 00:52:20;;;;;;;5.75;3.42;;;;;;;;;;5092359;28;20063;-84
2021/09/19 00:54:47;;;;;;;11.85;4.00;;;;;;;;;;5092724;28;20079;-84
2021/09/19 00:57:15;;;;;;;11.38;3.53;;;;;;;;;;5081219;28;20243;-83
2021/09/19 00:59:46;;;;;;;8.45;4.07;;;;;;;;;;5086346;28;20225;-83
2021/09/19 01:02:12;;;;;;;12.52;3.72;;;;;;;;;;5088774;28;20049;-83
2021/09/19 01:04:39;;;;;;;7.18;3.50;;;;;;;;;;5074615;28;20056;-83
2021/09/19 01:07:09;;;;;;;10.05;4.22;;;;;;;;;;5068717;28;20083;-83
2021/09/19 01:09:36;;;;;;;7.10;3.83;;;;;;;;;;5086980;28;20099;-83
2021/09/19 01:12:04;;;;;;;8.18;4.18;;;;;;;;;;5086268;28;20172;-84
2021/09/19 01:14:31;;;;;;;6.88;3.55;;;;;;;;;;5084492;28;20114;-84
2021/09/19 01:16:58;;;;;;;5.82;4.03;;;;;;;;;;5099887;28;20321;-84
2021/09/19 01:19:25;;;;;;;5.88;4.13;;;;;;;;;;5093584;28;20067;-83
2021/09/19 01:21:52;;;;;;;7.25;3.70;;;;;;;;;;5090965;28;20149;-84
2021/09/19 01:24:18;;;;;;;9.70;4.10;;;;;;;;;;5068251;28;20063;-84
2021/09/19 01:26:45;;;;;;;7.78;4.03;;;;;;;;;;5083238;28;20056;-83
2021/09/19 01:29:15;;;;;;;5.32;3.85;;;;;;;;;;5086201;28;20071;-84
2021/09/19 01:31:41;;;;;;;8.07;4.18;;;;;;;;;;5090694;28;20056;-83
2021/09/19 01:34:08;;;;;;;7.47;4.22;;;;;;;;;;5066950;28;20075;-82
2021/09/19 01:36:41;;;;;;;9.60;4.30;;;;;;;;;;5069077;28;20105;-82
2021/09/19 01:39:08;;;;;;;8.18;4.18;;;;;;;;;;5065391;28;20056;-83
2021/09/19 01:41:35;;;;;;;7.93;4.43;;;;;;;;;;5094869;28;20229;-84
2021/09/19 01:44:33;;;;;;;8.57;4.78;;;;;;;;;;5073335;28;20048;-83
2021/09/19 01:47:02;;;;;;;10.00;4.55;;;;;;;;;;5083147;28;20056;-83
2021/09/19 01:49:28;;;;;;;8.20;4.90;;;;;;;;;;5054459;28;20446;-83
2021/09/19 01:51:55;;;;;;;8.75;5.07;;;;;;;;;;5088840;28;20048;-84
2021/09/19 01:54:22;;;;;;;6.95;4.38;;;;;;;;;;5075427;28;20048;-84
2021/09/19 01:56:48;;;;;;;9.18;4.45;;;;;;;;;;5082768;28;20044;-84
2021/09/19 01:59:15;;;;;;;10.48;5.00;;;;;;;;;;5088178;28;20052;-83
2021/09/19 02:01:41;;;;;;;12.88;4.57;;;;;;;;;;5076963;28;20063;-84
2021/09/19 02:04:09;;;;;;;10.02;4.68;;;;;;;;;;5077840;28;20058;-83
2021/09/19 02:06:35;;;;;;;11.82;4.40;;;;;;;;;;5086924;28;20097;-83
2021/09/19 02:09:02;;;;;;;13.68;4.80;;;;;;;;;;5074678;28;20078;-83
2021/09/19 02:11:29;;;;;;;13.13;4.78;;;;;;;;;;5078669;28;20351;-84
2021/09/19 02:13:55;;;;;;;12.55;4.93;;;;;;;;;;5095942;28;20055;-84
2021/09/19 02:16:22;;;;;;;9.93;4.65;;;;;;;;;;5097218;28;20299;-84
2021/09/19 02:18:49;;;;;;;7.75;4.50;;;;;;;;;;5078246;28;20059;-83
2021/09/19 02:21:16;;;;;;;10.18;5.32;;;;;;;;;;5078753;28;20056;-83
2021/09/19 02:23:43;;;;;;;8.73;5.10;;;;;;;;;;5096392;28;20056;-84
2021/09/19 02:26:10;;;;;;;8.88;5.00;;;;;;;;;;5096974;28;20063;-84
2021/09/19 02:28:36;;;;;;;9.32;5.28;;;;;;;;;;5096199;28;20147;-84
2021/09/19 02:31:03;;;;;;;8.85;4.82;;;;;;;;;;5080476;28;20071;-84
2021/09/19 02:33:30;;;;;;;10.07;5.32;;;;;;;;;;5097450;28;20052;-84
2021/09/19 02:35:56;;;;;;;6.57;4.45;;;;;;;;;;5102016;28;20086;-83
2021/09/19 02:38:26;;;;;;;8.75;4.97;;;;;;;;;;5108439;28;20055;-83
2021/09/19 02:40:55;;;;;;;10.88;4.78;;;;;;;;;;5103301;28;20094;-83
2021/09/19 02:43:22;;;;;;;7.55;4.53;;;;;;;;;;5078898;28;20059;-81
2021/09/19 02:45:50;;;;;;;12.20;5.38;;;;;;;;;;5095422;28;20060;-81
2021/09/19 02:48:17;;;;;;;12.60;4.88;;;;;;;;;;5078926;28;20047;-82
2021/09/19 02:50:43;;;;;;;9.43;5.03;;;;;;;;;;5105882;28;20044;-81
2021/09/19 02:53:10;;;;;;;8.95;4.50;;;;;;;;;;5089868;28;20069;-81
2021/09/19 02:55:36;;;;;;;9.30;4.80;;;;;;;;;;5108359;28;20117;-81
2021/09/19 02:58:03;;;;;;;11.70;5.03;;;;;;;;;;5099040;28;20056;-82
2021/09/19 03:00:29;;;;;;;13.32;5.22;;;;;;;;;;5096145;28;20064;-82
2021/09/19 03:02:56;;;;;;;10.45;4.85;;;;;;;;;;5079480;28;20059;-82
2021/09/19 03:05:23;;;;;;;9.15;4.65;;;;;;;;;;5079476;28;20066;-82
2021/09/19 03:07:52;;;;;;;7.75;4.55;;;;;;;;;;5079276;28;20052;-81
2021/09/19 03:10:18;;;;;;;9.13;4.57;;;;;;;;;;5087471;28;20050;-81
2021/09/19 03:12:45;;;;;;;12.07;5.18;;;;;;;;;;5093128;28;20133;-81
2021/09/19 03:15:12;;;;;;;11.25;4.90;;;;;;;;;;5094541;28;20056;-81
2021/09/19 03:17:39;;;;;;;7.70;5.03;;;;;;;;;;5093921;28;20050;-82
2021/09/19 03:20:07;;;;;;;8.70;4.82;;;;;;;;;;5084180;28;20052;-82
2021/09/19 03:22:34;;;;;;;8.30;4.90;;;;;;;;;;5078222;28;20348;-81
2021/09/19 03:25:00;;;;;;;8.52;5.05;;;;;;;;;;5078493;28;20052;-81
2021/09/19 03:27:27;;;;;;;6.55;4.57;;;;;;;;;;5078678;28;20144;-81
2021/09/19 03:29:53;;;;;;;8.35;4.65;;;;;;;;;;5095968;28;20052;-82
2021/09/19 03:32:20;;;;;;;8.13;4.65;;;;;;;;;;5094995;28;20327;-82
2021/09/19 03:34:46;;;;;;;10.63;4.70;;;;;;;;;;5077558;28;20138;-82
2021/09/19 03:37:13;;;;;;;7.28;5.30;;;;;;;;;;5078396;28;20537;-82
2021/09/19 03:39:49;;;;;;;11.63;4.88;;;;;;;;;;5079013;28;20117;-82
2021/09/19 03:42:16;;;;;;;12.20;4.40;;;;;;;;;;5077831;28;20117;-82
2021/09/19 03:44:42;;;;;;;7.65;4.82;;;;;;;;;;5076788;28;20060;-82
2021/09/19 03:47:09;;;;;;;8.38;4.68;;;;;;;;;;5077002;28;20151;-82
2021/09/19 03:49:36;;;;;;;12.25;5.22;;;;;;;;;;5095329;28;20064;-82
2021/09/19 03:52:02;;;;;;;11.43;5.55;;;;;;;;;;5077210;28;20067;-82
2021/09/19 03:54:29;;;;;;;9.50;5.53;;;;;;;;;;5078350;28;20048;-82
2021/09/19 03:56:55;;;;;;;10.50;4.90;;;;;;;;;;5103636;28;20090;-81
2021/09/19 03:59:22;;;;;;;11.30;5.78;;;;;;;;;;5106784;28;20048;-82
2021/09/19 04:01:49;;;;;;;8.43;5.47;;;;;;;;;;5107203;28;20111;-82
2021/09/19 04:04:16;;;;;;;11.13;5.28;;;;;;;;;;5090083;28;20533;-82
2021/09/19 04:06:42;;;;;;;12.65;5.25;;;;;;;;;;5097521;28;20056;-82
2021/09/19 04:09:09;;;;;;;11.07;5.72;;;;;;;;;;5077046;28;20056;-82
2021/09/19 04:11:35;;;;;;;11.93;5.82;;;;;;;;;;5094765;28;20367;-82
2021/09/19 04:14:02;;;;;;;12.93;5.45;;;;;;;;;;5094659;28;20379;-82
2021/09/19 04:16:32;;;;;;;13.05;5.50;;;;;;;;;;5095653;28;20067;-82
2021/09/19 04:19:01;;;;;;;12.10;5.30;;;;;;;;;;5110282;28;20062;-82
2021/09/19 04:21:30;;;;;;;10.25;5.72;;;;;;;;;;5112785;28;20159;-81
2021/09/19 04:23:56;;;;;;;23.02;6.53;;;;;;;;;;5082496;28;20047;-82
2021/09/19 04:26:24;;;;;;;12.90;6.25;;;;;;;;;;5105294;28;20063;-81
2021/09/19 04:28:52;;;;;;;10.50;5.68;;;;;;;;;;5091976;28;20040;-82
2021/09/19 04:31:19;;;;;;;19.83;6.95;;;;;;;;;;5112538;28;20058;-82
2021/09/19 04:33:45;;;;;;;16.95;6.55;;;;;;;;;;5106322;28;20051;-82
2021/09/19 04:36:12;;;;;;;8.77;5.05;;;;;;;;;;5078069;28;20044;-82
2021/09/19 04:38:41;;;;;;;16.35;5.57;;;;;;;;;;5094842;28;20064;-82
2021/09/19 04:41:09;;;;;;;14.55;5.40;;;;;;;;;;5102985;28;20125;-82
2021/09/19 04:43:36;;;;;;;14.35;5.43;;;;;;;;;;5094992;28;20052;-82
2021/09/19 04:46:06;;;;;;;11.02;5.47;;;;;;;;;;5094908;28;20052;-82
2021/09/19 04:48:32;;;;;;;11.35;4.85;;;;;;;;;;5095237;28;20056;-81
2021/09/19 04:50:59;;;;;;;9.57;5.20;;;;;;;;;;5090583;28;20068;-82
2021/09/19 04:53:25;;;;;;;10.90;5.60;;;;;;;;;;5056417;28;20332;-82
2021/09/19 04:55:52;;;;;;;18.05;5.40;;;;;;;;;;5075335;28;20083;-82
2021/09/19 04:58:19;;;;;;;12.43;4.90;;;;;;;;;;5056309;28;20052;-82
2021/09/19 05:00:45;;;;;;;9.65;4.88;;;;;;;;;;5076562;28;20629;-82
2021/09/19 05:03:12;;;;;;;9.65;5.20;;;;;;;;;;5058555;28;20057;-82
2021/09/19 05:05:40;;;;;;;9.77;5.03;;;;;;;;;;5060372;28;20064;-82
2021/09/19 05:08:07;;;;;;;13.93;4.82;;;;;;;;;;5077441;28;20460;-82
2021/09/19 05:10:34;;;;;;;17.20;5.53;;;;;;;;;;5060917;28;20324;-82
2021/09/19 05:13:00;;;;;;;12.93;5.53;;;;;;;;;;5077592;28;20060;-81
2021/09/19 05:15:27;;;;;;;10.27;5.43;;;;;;;;;;5069686;28;20052;-81
2021/09/19 05:17:54;;;;;;;9.85;4.53;;;;;;;;;;5088106;28;20057;-81
2021/09/19 05:20:20;;;;;;;15.70;5.93;;;;;;;;;;5069035;28;20079;-81
2021/09/19 05:22:47;;;;;;;10.60;5.45;;;;;;;;;;5083764;28;20063;-82
2021/09/19 05:25:13;;;;;;;10.98;5.03;;;;;;;;;;5063715;28;20067;-81
2021/09/19 05:27:46;;;;;;;8.75;5.05;;;;;;;;;;5060287;28;20359;-81
2021/09/19 05:30:13;;;;;;;10.88;4.72;;;;;;;;;;5060652;28;20304;-81
2021/09/19 05:32:40;;;;;;;9.52;5.57;;;;;;;;;;5078331;28;20383;-81
2021/09/19 05:35:06;;;;;;;9.50;5.65;;;;;;;;;;5059738;28;20332;-81
2021/09/19 05:37:33;;;;;;;11.18;5.28;;;;;;;;;;5059406;28;20417;-82
2021/09/19 05:40:00;;;;;;;7.22;4.85;;;;;;;;;;5076844;28;20059;-81
2021/09/19 05:42:27;;;;;;;8.60;4.75;;;;;;;;;;5076521;28;20372;-81
2021/09/19 05:44:54;;;;;;;11.27;5.03;;;;;;;;;;5076457;28;20049;-81
2021/09/19 05:47:23;;;;;;;12.25;4.90;;;;;;;;;;5058734;28;20056;-81
2021/09/19 05:49:50;;;;;;;10.65;5.53;;;;;;;;;;5077361;28;20083;-82
2021/09/19 05:52:16;;;;;;;8.73;4.78;;;;;;;;;;5059415;28;20055;-81
2021/09/19 05:54:43;;;;;;;13.38;5.47;;;;;;;;;;5060417;28;20048;-81
2021/09/19 05:57:10;;;;;;;11.05;5.22;;;;;;;;;;5060489;28;20321;-81
2021/09/19 05:59:36;;;;;;;8.75;4.35;;;;;;;;;;5062516;28;20102;-81
2021/09/19 06:02:06;;;;;;;9.65;4.97;;;;;;;;;;5070913;28;20057;-81
2021/09/19 06:04:33;;;;;;;11.63;5.03;;;;;;;;;;5089181;28;20056;-81
2021/09/19 06:07:03;;;;;;;11.45;5.13;;;;;;;;;;5066658;28;20052;-81
2021/09/19 06:09:29;;;;;;;13.55;5.20;;;;;;;;;;5058630;28;20053;-81
2021/09/19 06:11:56;;;;;;;10.23;5.28;;;;;;;;;;5058611;28;20255;-81
2021/09/19 06:14:24;;;;;;;10.52;4.93;;;;;;;;;;5060254;28;20056;-82
2021/09/19 06:16:51;;;;;;;10.05;5.13;;;;;;;;;;5077479;28;20060;-81
2021/09/19 06:19:27;;;;;;;10.48;5.00;;;;;;;;;;5065693;28;20310;-81
2021/09/19 06:21:56;;;;;;;10.02;4.63;;;;;;;;;;5058571;28;20444;-81
2021/09/19 06:24:22;;;;;;;10.32;5.00;;;;;;;;;;5058902;28;20052;-81
2021/09/19 06:26:52;;;;;;;8.02;4.60;;;;;;;;;;5059255;28;20048;-82
2021/09/19 06:29:19;;;;;;;10.05;5.05;;;;;;;;;;5077007;28;20448;-81
2021/09/19 06:31:45;;;;;;;9.32;4.75;;;;;;;;;;5059468;28;20257;-81
2021/09/19 06:34:12;;;;;;;10.25;4.20;;;;;;;;;;5066176;28;20348;-81
2021/09/19 06:36:39;;;;;;;13.60;5.22;;;;;;;;;;5067491;28;20353;-81
2021/09/19 06:39:06;;;;;;;10.07;5.05;;;;;;;;;;5059567;28;20052;-81
2021/09/19 06:41:32;;;;;;;9.30;4.60;;;;;;;;;;5057873;28;20091;-82
2021/09/19 06:43:59;;;;;;;10.52;4.88;;;;;;;;;;5075186;28;20118;-81
2021/09/19 06:46:29;;;;;;;11.23;5.35;;;;;;;;;;5058928;28;20113;-82
2021/09/19 06:48:57;;;;;;;8.07;4.50;;;;;;;;;;5074906;28;20413;-81
2021/09/19 06:51:23;;;;;;;8.02;4.10;;;;;;;;;;5056589;28;20079;-81
2021/09/19 06:53:50;;;;;;;12.75;5.28;;;;;;;;;;5055858;28;20173;-82
2021/09/19 06:56:21;;;;;;;10.13;4.95;;;;;;;;;;5057235;28;20113;-81
2021/09/19 06:58:48;;;;;;;12.68;4.80;;;;;;;;;;5058101;28;20072;-82
2021/09/19 07:01:15;;;;;;;9.18;4.78;;;;;;;;;;5076468;28;20060;-83
2021/09/19 07:03:45;;;;;;;7.68;4.60;;;;;;;;;;5076517;28;20066;-82
2021/09/19 07:06:16;;;;;;;9.68;5.35;;;;;;;;;;5087652;28;20048;-82
2021/09/19 07:08:43;;;;;;;9.85;5.15;;;;;;;;;;5070651;28;20062;-82
2021/09/19 07:11:10;;;;;;;11.30;5.03;;;;;;;;;;5072484;28;20052;-82
2021/09/19 07:13:37;;;;;;;12.27;4.93;;;;;;;;;;5055984;28;20071;-82
2021/09/19 07:16:03;;;;;;;10.60;5.40;;;;;;;;;;5057723;28;20060;-80
2021/09/19 07:18:30;;;;;;;9.30;4.78;;;;;;;;;;5056315;28;20060;-80
2021/09/19 07:21:00;;;;;;;9.45;5.03;;;;;;;;;;5055864;28;20239;-81
2021/09/19 07:23:26;;;;;;;10.73;4.85;;;;;;;;;;5053588;28;20321;-81
2021/09/19 07:25:53;;;;;;;10.20;4.75;;;;;;;;;;5070974;28;20344;-81
2021/09/19 07:28:20;;;;;;;10.25;4.65;;;;;;;;;;5071031;28;20059;-81
2021/09/19 07:30:51;;;;;;;8.93;5.05;;;;;;;;;;5055791;28;20359;-81
2021/09/19 07:33:17;;;;;;;6.90;4.53;;;;;;;;;;5073844;28;20087;-82
2021/09/19 07:35:44;;;;;;;9.05;5.13;;;;;;;;;;5055366;28;20095;-81
2021/09/19 07:38:11;;;;;;;9.98;4.88;;;;;;;;;;5072741;28;20044;-81
2021/09/19 07:40:37;;;;;;;8.35;4.25;;;;;;;;;;5060264;28;20047;-81
2021/09/19 07:43:04;;;;;;;8.80;4.70;;;;;;;;;;5109084;28;20048;-81
2021/09/19 07:45:31;;;;;;;11.07;5.07;;;;;;;;;;5091001;28;20051;-82
2021/09/19 07:47:57;;;;;;;9.85;4.88;;;;;;;;;;5101033;28;20191;-81
2021/09/19 07:50:24;;;;;;;9.05;4.40;;;;;;;;;;5092535;28;20329;-82
2021/09/19 07:52:51;;;;;;;8.25;4.07;;;;;;;;;;5093672;28;20067;-82
2021/09/19 07:55:17;;;;;;;6.90;4.32;;;;;;;;;;5087544;28;20063;-82
2021/09/19 07:57:44;;;;;;;7.57;4.28;;;;;;;;;;5085154;28;20060;-82
2021/09/19 08:00:11;;;;;;;8.48;4.22;;;;;;;;;;5076256;28;20231;-82
2021/09/19 08:02:47;;;;;;;8.63;4.38;;;;;;;;;;5071560;28;20055;-82
2021/09/19 08:05:15;;;;;;;10.25;4.85;;;;;;;;;;5091696;28;20052;-82
2021/09/19 08:07:42;;;;;;;15.63;5.22;;;;;;;;;;5090768;28;20118;-82
2021/09/19 08:10:12;;;;;;;13.60;5.38;;;;;;;;;;5073245;28;20052;-82
2021/09/19 08:12:41;;;;;;;8.25;5.03;;;;;;;;;;5090463;28;20306;-82
2021/09/19 08:15:09;;;;;;;8.07;4.43;;;;;;;;;;5090442;28;20428;-81
2021/09/19 08:17:36;;;;;;;8.95;3.92;;;;;;;;;;5091874;28;20052;-82
2021/09/19 08:20:02;;;;;;;9.35;5.15;;;;;;;;;;5074663;28;20051;-82
2021/09/19 08:22:29;;;;;;;9.68;4.85;;;;;;;;;;5071747;28;20074;-82
2021/09/19 08:24:56;;;;;;;8.15;4.70;;;;;;;;;;5073161;28;20304;-82
2021/09/19 08:27:22;;;;;;;7.47;4.13;;;;;;;;;;5088581;28;20071;-81
2021/09/19 08:29:49;;;;;;;7.88;4.60;;;;;;;;;;5091071;28;20048;-81
2021/09/19 08:32:16;;;;;;;10.63;4.13;;;;;;;;;;5072394;28;20301;-81
2021/09/19 08:34:42;;;;;;;5.70;3.90;;;;;;;;;;5073487;28;20052;-82
2021/09/19 08:37:09;;;;;;;8.65;4.13;;;;;;;;;;5094285;28;20131;-82
2021/09/19 08:39:36;;;;;;;10.38;4.15;;;;;;;;;;5094106;28;20092;-82
2021/09/19 08:42:03;;;;;;;7.78;4.20;;;;;;;;;;5073383;28;20048;-82
2021/09/19 08:44:29;;;;;;;5.30;3.85;;;;;;;;;;5089418;28;20051;-81
2021/09/19 08:46:57;;;;;;;11.57;4.15;;;;;;;;;;5078602;28;20064;-81
2021/09/19 08:49:23;;;;;;;8.75;3.95;;;;;;;;;;5073091;28;20142;-81
2021/09/19 08:51:50;;;;;;;12.52;4.30;;;;;;;;;;5056446;28;20040;-81
2021/09/19 08:54:29;;;;;;;9.70;4.57;;;;;;;;;;5055911;28;20057;-82
2021/09/19 08:56:56;;;;;;;9.25;4.80;;;;;;;;;;5055743;28;20405;-81
2021/09/19 08:59:22;;;;;;;8.25;4.38;;;;;;;;;;5071567;28;20052;-81
2021/09/19 09:02:02;;;;;;;8.15;3.80;;;;;;;;;;5073264;28;20090;-81
2021/09/19 09:04:29;;;;;;;8.05;4.20;;;;;;;;;;5071943;28;20413;-82
2021/09/19 09:06:56;;;;;;;9.50;4.45;;;;;;;;;;5072188;28;20428;-81
2021/09/19 09:09:22;;;;;;;8.50;4.22;;;;;;;;;;5075371;28;20142;-82
2021/09/19 09:12:04;;;;;;;9.85;4.18;;;;;;;;;;5079045;28;20060;-81
2021/09/19 09:14:37;;;;;;;8.63;3.75;;;;;;;;;;5070916;28;20092;-81
2021/09/19 09:17:15;;;;;;;11.13;4.10;;;;;;;;;;5085147;28;20060;-82
2021/09/19 09:19:42;;;;;;;6.28;3.90;;;;;;;;;;5070661;28;20597;-82
2021/09/19 09:22:10;;;;;;;10.57;3.97;;;;;;;;;;5096898;28;20211;-82
2021/09/19 09:24:38;;;;;;;6.40;3.65;;;;;;;;;;5111514;28;20135;-82
2021/09/19 09:27:18;;;;;;;10.00;3.85;;;;;;;;;;5088614;28;20048;-82
2021/09/19 09:30:07;;;;;;;9.18;4.35;;;;;;;;;;5078877;28;20056;-82
2021/09/19 09:32:50;;;;;;;8.38;3.38;;;;;;;;;;5078658;28;20063;-82
2021/09/19 09:35:17;;;;;;;7.40;3.67;;;;;;;;;;5094761;28;20056;-82
2021/09/19 09:37:44;;;;;;;6.03;3.00;;;;;;;;;;5096041;28;20289;-81
2021/09/19 09:40:24;;;;;;;5.43;3.45;;;;;;;;;;5094858;28;20145;-82
2021/09/19 09:43:08;;;;;;;7.15;3.33;;;;;;;;;;5078095;28;20063;-82
2021/09/19 09:45:35;;;;;;;7.55;3.65;;;;;;;;;;5095340;28;20070;-82
2021/09/19 09:48:03;;;;;;;8.52;3.13;;;;;;;;;;5096589;28;20044;-84
2021/09/19 09:50:31;;;;;;;7.70;3.47;;;;;;;;;;5077534;28;20086;-83
2021/09/19 09:53:08;;;;;;;6.03;3.33;;;;;;;;;;5076176;28;20071;-81
2021/09/19 09:55:35;;;;;;;8.70;2.78;;;;;;;;;;5076505;28;20211;-82
2021/09/19 09:58:08;;;;;;;5.00;3.05;;;;;;;;;;5093225;28;20048;-82
2021/09/19 10:00:35;;;;;;;10.05;3.78;;;;;;;;;;5092980;28;20059;-81
2021/09/19 10:03:02;;;;;;;9.57;3.67;;;;;;;;;;5091873;28;20060;-82
2021/09/19 10:05:30;;;;;;;6.82;3.35;;;;;;;;;;5073919;28;20459;-82
2021/09/19 10:07:58;;;;;;;7.10;3.20;;;;;;;;;;5093913;28;20052;-82
2021/09/19 10:10:26;;;;;;;8.68;3.42;;;;;;;;;;5104980;28;20036;-82
2021/09/19 10:12:53;;;;;;;6.80;3.10;;;;;;;;;;5107836;28;20051;-82
2021/09/19 10:15:21;;;;;;;7.20;3.25;;;;;;;;;;5103952;28;20121;-82
2021/09/19 10:17:47;;;;;;;7.18;3.03;;;;;;;;;;5076996;28;20052;-82
2021/09/19 10:20:19;;;;;;;8.90;3.58;;;;;;;;;;5094089;28;20067;-81
2021/09/19 10:22:47;;;;;;;5.55;3.97;;;;;;;;;;5092122;28;20048;-82
2021/09/19 10:25:21;;;;;;;7.75;3.53;;;;;;;;;;5075269;28;20048;-81
2021/09/19 10:27:49;;;;;;;5.85;3.40;;;;;;;;;;5074399;28;20074;-82
2021/09/19 10:30:22;;;;;;;4.88;3.13;;;;;;;;;;5093597;28;20051;-82
2021/09/19 10:32:48;;;;;;;4.72;2.60;;;;;;;;;;5075152;28;20044;-81
2021/09/19 10:35:15;;;;;;;8.48;2.97;;;;;;;;;;5093507;28;20051;-81
2021/09/19 10:37:52;;;;;;;6.65;2.67;;;;;;;;;;5073997;28;20957;-82
2021/09/19 10:40:34;;;;;;;5.32;3.10;;;;;;;;;;5074039;28;20062;-81
2021/09/19 10:43:02;;;;;;;5.30;2.67;;;;;;;;;;5091570;28;20113;-83
2021/09/19 10:45:39;;;;;;;7.10;2.50;;;;;;;;;;5092718;28;20060;-82
2021/09/19 10:48:12;;;;;;;4.60;2.67;;;;;;;;;;5077581;28;20056;-83
2021/09/19 10:50:39;;;;;;;4.07;2.58;;;;;;;;;;5067951;28;20056;-83
2021/09/19 10:53:14;;;;;;;4.03;2.47;;;;;;;;;;5094634;28;20294;-82
2021/09/19 10:56:03;;;;;;;4.32;2.45;;;;;;;;;;5088485;28;20044;-83
2021/09/19 10:58:37;;;;;;;4.13;2.45;;;;;;;;;;5067226;28;20059;-81
2021/09/19 11:01:09;;;;;;;3.83;2.38;;;;;;;;;;5062298;28;20087;-82
2021/09/19 11:03:41;;;;;;;5.70;2.35;;;;;;;;;;5056685;28;20068;-82
2021/09/19 11:06:28;;;;;;;5.43;2.30;;;;;;;;;;5070244;28;20086;-82
2021/09/19 11:08:56;;;;;;;4.78;2.35;;;;;;;;;;5097812;28;20050;-82
2021/09/19 11:11:24;;;;;;;5.75;2.55;;;;;;;;;;5091912;28;20063;-82
2021/09/19 11:13:55;;;;;;;3.75;2.67;;;;;;;;;;5094401;28;20083;-82
2021/09/19 11:16:22;;;;;;;5.60;2.38;;;;;;;;;;5086919;28;20412;-83
2021/09/19 11:19:09;;;;;;;3.33;2.30;;;;;;;;;;5087144;28;20055;-82
2021/09/19 11:21:39;;;;;;;2.92;1.90;;;;;;;;;;5086367;28;20074;-82
2021/09/19 11:24:08;;;;;;;4.20;2.30;;;;;;;;;;5076470;28;20394;-82
2021/09/19 11:26:37;;;;;;;3.92;1.98;;;;;;;;;;5090237;28;20448;-82
2021/09/19 11:29:26;;;;;;;4.15;2.10;;;;;;;;;;5069898;28;20060;-83
2021/09/19 11:31:55;;;;;;;2.35;1.63;;;;;;;;;;5063086;28;20043;-82
2021/09/19 11:34:23;;;;;;;2.45;1.77;;;;;;;;;;5064690;28;20095;-82
2021/09/19 11:36:56;;;;;;;4.80;1.90;;;;;;;;;;5092624;28;20098;-81
2021/09/19 11:39:29;;;;;;;3.10;2.00;;;;;;;;;;5092435;28;20114;-82
2021/09/19 11:41:56;;;;;;;2.30;1.67;;;;;;;;;;5073552;28;20199;-82
2021/09/19 11:44:25;;;;;;;3.50;2.15;;;;;;;;;;5075349;28;20055;-82
2021/09/19 11:46:51;;;;;;;3.65;2.20;;;;;;;;;;5093763;28;20572;-81
2021/09/19 11:49:18;;;;;;;4.80;2.30;;;;;;;;;;5092990;28;20056;-82
2021/09/19 11:51:45;;;;;;;3.75;2.60;;;;;;;;;;5072938;28;20105;-81
2021/09/19 11:54:13;;;;;;;3.38;1.60;;;;;;;;;;5073132;28;20059;-82
2021/09/19 11:56:41;;;;;;;3.50;1.95;;;;;;;;;;5074304;28;20059;-82
2021/09/19 11:59:12;;;;;;;3.20;2.03;;;;;;;;;;5076418;28;20048;-81
2021/09/19 12:01:40;;;;;;;2.78;2.00;;;;;;;;;;5088717;28;20059;-81
2021/09/19 12:04:09;;;;;;;4.80;2.05;;;;;;;;;;5071635;28;20067;-82
2021/09/19 12:06:37;;;;;;;3.30;2.10;;;;;;;;;;5089215;28;20098;-82
2021/09/19 12:09:08;;;;;;;3.63;2.20;;;;;;;;;;5077823;28;20052;-82
2021/09/19 12:11:42;;;;;;;4.53;2.20;;;;;;;;;;5080352;28;20151;-82
2021/09/19 12:14:22;;;;;;;3.40;2.00;;;;;;;;;;5080987;28;20056;-82
2021/09/19 12:17:05;;;;;;;3.03;2.00;;;;;;;;;;5068155;28;20067;-81
2021/09/19 12:19:36;;;;;;;3.85;1.90;;;;;;;;;;5093791;28;20044;-83
2021/09/19 12:22:07;;;;;;;2.75;1.73;;;;;;;;;;5077180;28;20452;-82
2021/09/19 12:24:35;;;;;;;2.95;1.92;;;;;;;;;;5075833;28;20416;-82
2021/09/19 12:27:28;;;;;;;3.17;2.00;;;;;;;;;;5071881;28;20309;-82
2021/09/19 12:30:15;;;;;;;2.90;1.63;;;;;;;;;;5079378;28;20060;-82
2021/09/19 12:32:52;;;;;;;6.32;2.15;;;;;;;;;;5078633;28;20239;-82
2021/09/19 12:35:23;;;;;;;2.47;1.80;;;;;;;;;;5089575;28;20060;-82
2021/09/19 12:37:50;;;;;;;4.40;2.30;;;;;;;;;;5087876;28;20251;-82
2021/09/19 12:40:18;;;;;;;3.63;2.17;;;;;;;;;;5079827;28;20404;-82
2021/09/19 12:42:52;;;;;;;4.15;1.90;;;;;;;;;;5073680;28;20236;-82
2021/09/19 12:45:22;;;;;;;5.07;1.75;;;;;;;;;;5088668;28;20344;-82
2021/09/19 12:47:52;;;;;;;5.95;2.15;;;;;;;;;;5072539;28;20440;-82
2021/09/19 12:50:19;;;;;;;4.05;2.08;;;;;;;;;;5073759;28;20436;-82
2021/09/19 12:52:53;;;;;;;2.92;2.28;;;;;;;;;;5082525;28;20094;-82
2021/09/19 12:55:23;;;;;;;4.78;2.10;;;;;;;;;;5085580;28;20351;-83
2021/09/19 12:57:50;;;;;;;7.05;2.53;;;;;;;;;;5068382;28;20471;-83
2021/09/19 13:00:26;;;;;;;5.85;1.95;;;;;;;;;;5091840;28;20120;-83
2021/09/19 13:03:08;;;;;;;3.13;2.35;;;;;;;;;;5074546;28;20079;-83
2021/09/19 13:05:39;;;;;;;7.15;2.33;;;;;;;;;;5070927;28;20070;-82
2021/09/19 13:08:05;;;;;;;3.42;2.30;;;;;;;;;;5079410;28;20052;-82
2021/09/19 13:10:32;;;;;;;3.38;1.90;;;;;;;;;;5099041;28;20570;-82
2021/09/19 13:12:59;;;;;;;7.70;1.95;;;;;;;;;;5100924;28;20044;-82
2021/09/19 13:15:26;;;;;;;4.28;2.20;;;;;;;;;;5104216;28;20125;-82
2021/09/19 13:17:53;;;;;;;3.95;2.45;;;;;;;;;;5079391;28;20210;-82
2021/09/19 13:20:20;;;;;;;4.18;2.33;;;;;;;;;;5091325;28;20048;-82
2021/09/19 13:22:47;;;;;;;2.83;2.13;;;;;;;;;;5093257;28;20048;-82
2021/09/19 13:25:14;;;;;;;5.03;2.22;;;;;;;;;;5092098;28;20094;-82
2021/09/19 13:27:40;;;;;;;6.40;2.13;;;;;;;;;;5066419;28;20480;-82
2021/09/19 13:30:07;;;;;;;4.18;2.22;;;;;;;;;;5054883;28;20068;-82
2021/09/19 13:32:34;;;;;;;4.93;2.20;;;;;;;;;;5073353;28;20413;-82
2021/09/19 13:35:01;;;;;;;6.53;2.75;;;;;;;;;;5060851;28;20364;-82
2021/09/19 13:37:33;;;;;;;5.35;2.25;;;;;;;;;;5071159;28;20056;-82
2021/09/19 13:40:00;;;;;;;5.15;2.88;;;;;;;;;;5073289;28;20102;-82
2021/09/19 13:42:27;;;;;;;3.35;1.85;;;;;;;;;;5071475;28;20049;-82
2021/09/19 13:44:55;;;;;;;4.65;2.65;;;;;;;;;;5069674;28;20067;-82
2021/09/19 13:47:21;;;;;;;3.67;2.40;;;;;;;;;;5070523;28;20087;-82
2021/09/19 13:49:49;;;;;;;5.32;2.22;;;;;;;;;;5086165;28;20204;-82
2021/09/19 13:52:16;;;;;;;3.78;2.22;;;;;;;;;;5070575;28;20052;-81
2021/09/19 13:54:43;;;;;;;5.45;2.70;;;;;;;;;;5071470;28;20052;-81
2021/09/19 13:57:09;;;;;;;4.88;2.67;;;;;;;;;;5072165;28;20048;-81
2021/09/19 13:59:39;;;;;;;6.13;2.50;;;;;;;;;;5069454;28;20349;-81
2021/09/19 14:02:05;;;;;;;6.80;2.70;;;;;;;;;;5088508;28;20452;-82
2021/09/19 14:04:32;;;;;;;3.22;2.17;;;;;;;;;;5071704;28;20048;-82
2021/09/19 14:06:59;;;;;;;4.78;2.50;;;;;;;;;;5092009;28;20155;-82
2021/09/19 14:09:32;;;;;;;5.65;2.47;;;;;;;;;;5091243;28;20227;-83
2021/09/19 14:11:58;;;;;;;4.43;2.08;;;;;;;;;;5100629;28;20194;-81
2021/09/19 14:14:26;;;;;;;3.50;2.45;;;;;;;;;;5079222;28;20066;-82
2021/09/19 14:16:54;;;;;;;3.25;2.28;;;;;;;;;;5088975;28;20067;-81
2021/09/19 14:19:21;;;;;;;6.50;2.50;;;;;;;;;;5089695;28;20063;-82
2021/09/19 14:21:48;;;;;;;4.93;2.55;;;;;;;;;;5072030;28;20044;-82
2021/09/19 14:24:14;;;;;;;3.28;2.05;;;;;;;;;;5091093;28;20288;-82
2021/09/19 14:26:45;;;;;;;3.50;2.17;;;;;;;;;;5078889;28;20035;-82
2021/09/19 14:29:11;;;;;;;5.60;2.55;;;;;;;;;;5088963;28;20056;-83
2021/09/19 14:31:38;;;;;;;4.22;2.22;;;;;;;;;;5105346;28;20051;-83
2021/09/19 14:34:08;;;;;;;4.13;2.30;;;;;;;;;;5090276;28;20056;-82
2021/09/19 14:36:34;;;;;;;4.50;2.22;;;;;;;;;;5073621;28;20066;-82
2021/09/19 14:39:03;;;;;;;4.28;2.40;;;;;;;;;;5079096;28;20089;-83
2021/09/19 14:41:30;;;;;;;5.32;2.10;;;;;;;;;;5098358;28;20056;-83
2021/09/19 14:43:56;;;;;;;3.95;2.50;;;;;;;;;;5077007;28;20060;-83
2021/09/19 14:46:30;;;;;;;4.22;2.53;;;;;;;;;;5070267;28;20329;-84